createdAt,value
2023-03-24T04:52:20.905Z,72.23
2023-03-24T05:46:05.212Z,82.83
2023-03-24T05:48:33.865Z,83.10
2023-03-24T05:51:26.748Z,83.00
2023-03-24T05:54:01.980Z,83.07
2023-03-24T05:56:33.398Z,83.35
2023-03-24T05:59:12.059Z,82.92
2023-03-24T06:01:58.375Z,82.78
2023-03-24T06:04:48.910Z,82.77
2023-03-24T06:07:18.890Z,82.20
2023-03-24T06:09:50.726Z,82.16
2023-03-24T06:12:17.253Z,81.93
2023-03-24T06:15:00.812Z,81.10
2023-03-24T06:17:30.178Z,80.88
2023-03-24T06:20:06.054Z,80.85
2023-03-24T06:22:48.063Z,80.64
2023-03-24T06:25:20.256Z,81.00
2023-03-24T06:27:56.211Z,80.96
2023-03-24T06:30:24.618Z,80.86
2023-03-24T06:32:51.227Z,80.74
2023-03-24T06:35:19.106Z,80.86
2023-03-24T06:38:02.709Z,80.55
2023-03-24T06:40:29.347Z,80.02
2023-03-24T06:42:57.996Z,79.96
2023-03-24T06:45:24.807Z,80.10
2023-03-24T06:47:58.041Z,79.96
2023-03-24T06:50:33.025Z,79.97
2023-03-24T06:53:01.796Z,80.35
2023-03-24T06:55:30.293Z,80.17
2023-03-24T06:57:56.979Z,80.14
2023-03-24T07:00:36.860Z,80.14
2023-03-24T07:03:29.358Z,80.26
2023-03-24T07:06:14.562Z,80.44
2023-03-24T07:08:42.139Z,80.98
2023-03-24T07:11:10.114Z,81.15
2023-03-24T07:13:40.164Z,81.15
2023-03-24T07:16:08.516Z,81.21
2023-03-24T07:18:37.859Z,81.20
2023-03-24T07:21:06.244Z,81.48
2023-03-24T07:23:34.562Z,81.26
2023-03-24T07:26:13.399Z,82.15
2023-03-24T07:28:49.844Z,82.54
2023-03-24T07:31:42.809Z,82.97
2023-03-24T07:34:12.292Z,83.17
2023-03-24T07:36:39.694Z,83.49
2023-03-24T07:39:10.713Z,83.88
2023-03-24T07:41:37.388Z,84.03
2023-03-24T07:44:11.849Z,83.68
2023-03-24T07:49:19.281Z,83.80
2023-03-24T07:51:54.103Z,83.48
2023-03-24T07:54:28.507Z,83.14
2023-03-24T07:56:56.033Z,82.81
2023-03-24T07:59:24.833Z,82.61
2023-03-24T08:01:57.676Z,82.80
2023-03-24T08:04:37.434Z,82.40
2023-03-24T08:07:25.705Z,82.63
2023-03-24T08:09:52.100Z,82.97
2023-03-24T08:12:20.701Z,83.07
2023-03-24T08:14:47.410Z,83.26
2023-03-24T08:17:13.850Z,83.52
2023-03-24T08:19:52.081Z,83.86
2023-03-24T08:22:25.549Z,83.92
2023-03-24T08:24:52.028Z,84.61
2023-03-24T08:27:18.813Z,85.74
2023-03-24T08:29:45.222Z,86.44
2023-03-24T08:32:11.667Z,87.27
2023-03-24T08:34:38.152Z,87.88
2023-03-24T08:37:04.636Z,88.08
2023-03-24T08:39:32.291Z,88.61
2023-03-24T08:41:58.827Z,88.64
2023-03-24T08:44:25.321Z,89.01
2023-03-24T08:46:51.913Z,88.61
2023-03-24T08:49:18.467Z,88.58
2023-03-24T08:51:46.305Z,88.56
2023-03-24T08:54:13.427Z,88.40
2023-03-24T08:56:40.258Z,88.03
2023-03-24T08:59:06.969Z,88.06
2023-03-24T09:01:35.280Z,87.92
2023-03-24T09:04:02.489Z,88.38
2023-03-24T09:06:29.041Z,88.25
2023-03-24T09:08:55.736Z,88.02
2023-03-24T09:11:22.295Z,88.52
2023-03-24T09:13:49.327Z,88.42
2023-03-24T09:16:16.472Z,88.55
2023-03-24T09:18:43.243Z,88.55
2023-03-24T09:21:09.963Z,88.66
2023-03-24T09:23:36.584Z,88.67
2023-03-24T09:26:03.768Z,89.33
2023-03-24T09:28:30.236Z,89.47
2023-03-24T09:30:58.461Z,90.24
2023-03-24T09:33:25.357Z,90.83
2023-03-24T09:35:58.492Z,90.62
2023-03-24T09:38:26.522Z,90.93
2023-03-24T09:41:00.689Z,91.29
2023-03-24T09:43:34.190Z,91.08
2023-03-24T09:46:02.177Z,91.16
2023-03-24T09:48:57.738Z,90.93
2023-03-24T09:51:26.211Z,90.76
2023-03-24T09:53:59.454Z,91.20
2023-03-24T09:56:26.429Z,91.22
2023-03-24T09:59:04.200Z,91.04
2023-03-24T10:01:30.807Z,90.69
2023-03-24T10:03:59.280Z,90.59
2023-03-24T10:06:39.845Z,91.02
2023-03-24T10:09:28.681Z,90.87
2023-03-24T10:12:33.404Z,91.59
2023-03-24T10:15:37.313Z,91.80
2023-03-24T10:18:20.768Z,91.91
2023-03-24T10:20:56.802Z,91.91
2023-03-24T10:23:35.395Z,92.29
2023-03-24T10:26:36.171Z,92.63
2023-03-24T10:29:17.932Z,92.88
2023-03-24T10:31:50.984Z,93.14
2023-03-24T10:34:17.778Z,93.75
2023-03-24T10:36:44.704Z,94.67
2023-03-24T10:39:20.898Z,93.60
2023-03-24T10:41:49.691Z,90.88
2023-03-24T10:44:16.824Z,90.08
2023-03-24T10:46:46.928Z,89.50
2023-03-24T10:49:14.488Z,89.24
2023-03-24T10:51:46.520Z,89.54
2023-03-24T10:54:18.328Z,89.69
2023-03-24T10:56:48.936Z,89.32
2023-03-24T10:59:25.863Z,89.58
2023-03-24T11:01:57.994Z,90.13
2023-03-24T11:04:24.540Z,89.92
2023-03-24T11:07:02.718Z,89.98
2023-03-24T11:09:29.707Z,89.91
2023-03-24T11:11:58.438Z,90.14
2023-03-24T11:14:27.286Z,89.85
2023-03-24T11:17:03.518Z,89.56
2023-03-24T11:19:32.529Z,89.78
2023-03-24T11:22:03.288Z,89.76
2023-03-24T11:24:30.144Z,89.66
2023-03-24T11:27:01.854Z,89.61
2023-03-24T11:29:32.813Z,89.76
2023-03-24T11:32:01.627Z,89.02
2023-03-24T11:34:34.308Z,87.79
2023-03-24T11:37:04.128Z,87.89
2023-03-24T11:39:34.036Z,87.58
2023-03-24T11:42:12.576Z,87.73
2023-03-24T11:44:38.944Z,87.43
2023-03-24T11:47:31.464Z,86.59
2023-03-24T11:50:10.122Z,86.20
2023-03-24T11:52:50.402Z,85.40
2023-03-24T11:55:31.152Z,85.45
2023-03-24T11:58:15.917Z,85.38
2023-03-24T12:00:48.518Z,84.98
2023-03-24T12:03:38.354Z,84.55
2023-03-24T12:06:19.835Z,83.98
2023-03-24T12:09:13.305Z,83.70
2023-03-24T12:11:56.217Z,82.79
2023-03-24T12:14:41.787Z,82.64
2023-03-24T12:17:16.768Z,82.70
2023-03-24T12:19:55.499Z,83.07
2023-03-24T12:22:37.408Z,83.52
2023-03-24T12:25:25.180Z,83.21
2023-03-24T12:28:10.034Z,82.95
2023-03-24T12:31:04.286Z,82.67
2023-03-24T12:33:46.756Z,81.53
2023-03-24T12:36:13.160Z,80.82
2023-03-24T12:38:45.544Z,80.55
2023-03-24T12:41:30.871Z,79.82
2023-03-24T12:44:32.196Z,79.47
2023-03-24T12:47:20.201Z,78.98
2023-03-24T12:49:53.720Z,78.49
2023-03-24T12:53:04.799Z,78.27
2023-03-24T12:55:43.144Z,78.12
2023-03-24T12:58:18.485Z,78.03
2023-03-24T13:01:07.473Z,77.57
2023-03-24T13:03:36.075Z,77.63
2023-03-24T13:06:17.235Z,77.00
2023-03-24T13:08:49.342Z,76.85
2023-03-24T13:11:31.908Z,77.14
2023-03-24T13:14:01.156Z,76.91
2023-03-24T13:16:30.771Z,75.54
2023-03-24T13:19:03.114Z,75.61
2023-03-24T13:21:31.729Z,75.67
2023-03-24T13:24:11.044Z,74.06
2023-03-24T13:26:57.720Z,72.95
2023-03-24T13:29:45.442Z,72.04
2023-03-24T13:32:20.670Z,71.04
2023-03-24T13:34:53.374Z,69.73
2023-03-24T13:37:22.712Z,70.40
2023-03-24T13:39:56.168Z,70.59
2023-03-24T13:42:28.282Z,70.61
2023-03-24T13:44:54.709Z,70.93
2023-03-24T13:47:21.151Z,70.66
2023-03-24T13:50:07.975Z,70.41
2023-03-24T13:52:47.638Z,70.41
2023-03-24T13:55:28.637Z,70.28
2023-03-24T13:58:01.548Z,70.22
2023-03-24T14:00:28.223Z,68.96
2023-03-24T14:03:03.628Z,67.12
2023-03-24T14:05:30.166Z,64.96
2023-03-24T14:07:59.265Z,65.09
2023-03-24T14:10:25.578Z,63.60
2023-03-24T14:12:52.705Z,63.28
2023-03-24T14:15:21.468Z,62.18
2023-03-24T14:17:49.663Z,61.03
2023-03-24T14:20:29.019Z,61.06
2023-03-24T14:22:55.562Z,61.54
2023-03-24T14:25:25.607Z,60.38
2023-03-24T14:28:18.727Z,60.07
2023-03-24T14:31:00.158Z,58.90
2023-03-24T14:33:26.761Z,58.63
2023-03-24T14:36:11.945Z,58.05
2023-03-24T14:38:41.418Z,58.78
2023-03-24T14:41:12.918Z,58.60
2023-03-24T14:43:39.215Z,57.85
2023-03-24T14:46:35.400Z,57.43
2023-03-24T14:49:24.648Z,57.79
2023-03-24T14:52:00.159Z,57.75
2023-03-24T14:54:34.669Z,57.71
2023-03-24T14:57:02.768Z,56.65
2023-03-24T14:59:49.099Z,57.01
2023-03-24T15:02:27.087Z,57.87
2023-03-24T15:05:16.708Z,57.12
2023-03-24T15:07:44.729Z,55.11
2023-03-24T15:10:18.618Z,55.49
2023-03-24T15:12:46.159Z,54.70
2023-03-24T15:15:21.884Z,54.05
2023-03-24T15:17:49.676Z,52.28
2023-03-24T15:20:24.927Z,50.60
2023-03-24T15:22:54.991Z,51.98
2023-03-24T15:25:27.612Z,52.15
2023-03-24T15:27:55.077Z,52.03
2023-03-24T15:30:21.848Z,51.08
2023-03-24T15:32:49.206Z,51.05
2023-03-24T15:35:19.944Z,51.06
2023-03-24T15:37:54.386Z,51.44
2023-03-24T15:40:26.561Z,50.28
2023-03-24T15:42:54.737Z,51.20
2023-03-24T15:45:26.149Z,51.03
2023-03-24T15:47:53.619Z,51.44
2023-03-24T15:50:35.407Z,50.97
2023-03-24T15:53:04.806Z,51.99
2023-03-24T15:55:36.572Z,50.88
2023-03-24T15:58:28.346Z,50.70
2023-03-24T16:00:57.451Z,51.08
2023-03-24T16:03:27.064Z,51.33
2023-03-24T16:05:55.770Z,51.54
2023-03-24T16:08:35.630Z,51.69
2023-03-24T16:11:06.889Z,51.71
2023-03-24T16:13:34.365Z,51.78
2023-03-24T16:16:13.766Z,51.96
2023-03-24T16:18:42.297Z,51.27
2023-03-24T16:21:19.803Z,51.57
2023-03-24T16:23:47.344Z,51.74
2023-03-24T16:26:24.375Z,51.69
2023-03-24T16:28:51.956Z,52.10
2023-03-24T16:31:33.421Z,52.22
2023-03-24T16:33:59.935Z,52.54
2023-03-24T16:36:27.077Z,52.33
2023-03-24T16:38:55.217Z,52.79
2023-03-24T16:41:22.192Z,53.08
2023-03-24T16:43:48.760Z,53.24
2023-03-24T16:46:21.269Z,53.34
2023-03-24T16:48:47.983Z,53.87
2023-03-24T16:51:16.234Z,54.64
2023-03-24T16:53:44.077Z,55.06
2023-03-24T16:56:13.935Z,55.33
2023-03-24T16:58:40.707Z,55.71
2023-03-24T17:01:23.866Z,55.63
2023-03-24T17:03:50.813Z,55.61
2023-03-24T17:06:17.422Z,55.67
2023-03-24T17:08:45.429Z,55.32
2023-03-24T17:11:12.170Z,56.08
2023-03-24T17:13:38.696Z,56.24
2023-03-24T17:16:06.349Z,56.66
2023-03-24T17:18:32.978Z,56.83
2023-03-24T17:20:59.445Z,56.88
2023-03-24T17:23:26.540Z,57.55
2023-03-24T17:25:52.974Z,57.56
2023-03-24T17:28:19.433Z,58.08
2023-03-24T17:30:46.339Z,57.86
2023-03-24T17:33:14.216Z,58.14
2023-03-24T17:35:40.802Z,57.79
2023-03-24T17:38:07.568Z,57.48
2023-03-24T17:40:33.992Z,57.35
2023-03-24T17:43:00.441Z,57.52
2023-03-24T17:45:26.871Z,57.65
2023-03-24T17:47:54.859Z,57.72
2023-03-24T17:50:22.177Z,58.19
2023-03-24T17:52:49.149Z,58.39
2023-03-24T17:55:16.555Z,58.46
2023-03-24T17:57:43.488Z,58.28
2023-03-24T18:00:11.823Z,58.47
2023-03-24T18:02:39.189Z,58.45
2023-03-24T18:05:06.378Z,58.41
2023-03-24T18:07:32.925Z,58.87
2023-03-24T18:09:59.557Z,59.14
2023-03-24T18:12:26.103Z,59.32
2023-03-24T18:15:00.116Z,59.98
2023-03-24T18:17:30.172Z,60.10
2023-03-24T18:20:14.681Z,60.00
2023-03-24T18:22:41.382Z,59.62
2023-03-24T18:25:13.492Z,59.26
2023-03-24T18:27:44.377Z,58.67
2023-03-24T18:30:13.270Z,58.63
2023-03-24T18:32:40.311Z,58.21
2023-03-24T18:35:41.999Z,58.28
2023-03-24T18:38:08.732Z,58.25
2023-03-24T18:40:35.435Z,58.15
2023-03-24T23:46:58.149Z,72.93
2023-03-24T23:53:15.172Z,73.21
2023-03-24T23:56:43.976Z,72.98
